Time;durP1;ratioP1;P1;durP2;ratioP2;P2;SDS_P1;SDS_P2;PMS_P1;PMS_P2;Temp;Humidity;BMP_temperature;BMP_pressure;BME280_temperature;BME280_humidity;BME280_pressure;Samples;Min_cycle;Max_cycle;Signal;HPM_P1;HPM_P2
2021/12/01 00:00:17;;;;;;;7.03;1.58;;;;;;;1.84;75.01;96985.25;5092459;28;20016;-74
2021/12/01 00:02:42;;;;;;;4.70;1.50;;;;;;;1.83;74.56;96991.78;5091884;28;20055;-75
2021/12/01 00:05:09;;;;;;;5.85;1.60;;;;;;;1.83;74.59;96997.19;5073939;28;20066;-75
2021/12/01 00:07:36;;;;;;;5.47;1.60;;;;;;;1.84;74.76;97001.47;5091778;28;20040;-76
2021/12/01 00:10:07;;;;;;;5.28;1.80;;;;;;;1.86;73.68;97002.84;5093055;28;20376;-76
2021/12/01 00:12:33;;;;;;;5.90;1.45;;;;;;;1.86;73.57;97016.34;5093081;28;20069;-76
2021/12/01 00:14:58;;;;;;;4.03;1.42;;;;;;;1.86;72.19;97008.25;5092978;28;20024;-77
2021/12/01 00:17:25;;;;;;;4.95;1.55;;;;;;;1.86;72.71;97023.66;5074713;28;20035;-77
2021/12/01 00:19:51;;;;;;;6.10;1.60;;;;;;;1.88;71.16;97016.06;5092937;28;20028;-76
2021/12/01 00:22:16;;;;;;;5.28;1.50;;;;;;;1.88;72.12;97022.31;5093654;28;20353;-75
2021/12/01 00:24:41;;;;;;;3.47;1.33;;;;;;;1.87;72.06;97017.16;5092551;28;20396;-75
2021/12/01 00:27:07;;;;;;;3.45;1.17;;;;;;;1.86;72.38;97019.06;5075310;28;20040;-75
2021/12/01 00:29:32;;;;;;;4.10;1.35;;;;;;;1.84;71.83;97023.09;5074998;28;20074;-75
2021/12/01 00:31:58;;;;;;;3.78;1.70;;;;;;;1.83;72.16;97026.94;5074011;28;20043;-74
2021/12/01 00:34:23;;;;;;;5.50;1.25;;;;;;;1.83;72.29;97022.31;5091931;28;20045;-74
2021/12/01 00:36:49;;;;;;;4.63;1.20;;;;;;;1.83;71.56;97025.00;5092281;28;20039;-75
2021/12/01 00:39:14;;;;;;;5.25;1.40;;;;;;;1.84;69.84;97039.31;5091715;28;20069;-74
2021/12/01 00:41:39;;;;;;;4.45;1.50;;;;;;;1.86;70.65;97039.88;5091986;28;20028;-74
2021/12/01 00:44:07;;;;;;;4.47;1.33;;;;;;;1.88;71.28;97045.81;5091700;28;20035;-74
2021/12/01 00:46:41;;;;;;;2.67;1.00;;;;;;;1.88;69.54;97051.22;5091065;28;20365;-74
2021/12/01 00:49:07;;;;;;;3.47;1.45;;;;;;;1.90;70.00;97062.56;5091937;28;20110;-74
2021/12/01 00:51:33;;;;;;;4.55;1.35;;;;;;;1.91;69.48;97053.38;5091355;28;20035;-74
2021/12/01 00:53:58;;;;;;;5.47;1.58;;;;;;;1.90;70.75;97057.16;5091540;28;20027;-74
2021/12/01 00:56:24;;;;;;;4.03;1.60;;;;;;;1.89;69.20;97058.25;5091570;28;20105;-74
2021/12/01 00:58:51;;;;;;;6.47;1.60;;;;;;;1.90;70.10;97073.38;5091705;28;20468;-74
2021/12/01 01:01:16;;;;;;;4.32;1.20;;;;;;;1.89;70.17;97069.06;5072863;28;20034;-75
2021/12/01 01:03:42;;;;;;;4.95;1.52;;;;;;;1.88;69.90;97070.97;5073051;28;20126;-74
2021/12/01 01:06:08;;;;;;;3.05;1.25;;;;;;;1.91;70.55;97088.53;5091351;28;20020;-74
2021/12/01 01:08:34;;;;;;;4.03;1.50;;;;;;;1.91;69.44;97091.22;5090841;28;20457;-74
2021/12/01 01:16:22;;;;;;;4.13;1.35;;;;;;;1.91;69.86;97105.56;5090565;28;20491;-74
2021/12/01 01:18:51;;;;;;;4.50;1.33;;;;;;;1.94;68.66;97104.19;5091155;28;20169;-74
2021/12/01 01:21:17;;;;;;;2.55;1.30;;;;;;;1.93;69.22;97105.28;5089707;28;20027;-75
2021/12/01 01:23:44;;;;;;;4.93;1.85;;;;;;;1.89;68.53;97118.56;5091253;28;20036;-75
2021/12/01 01:26:12;;;;;;;3.40;1.10;;;;;;;1.85;69.30;97135.56;5092228;28;20028;-75
2021/12/01 01:28:38;;;;;;;4.00;0.90;;;;;;;1.83;69.20;97135.84;5092029;28;20032;-75
2021/12/01 01:31:04;;;;;;;2.65;1.10;;;;;;;1.82;69.07;97144.25;5091504;28;20035;-74
2021/12/01 01:33:30;;;;;;;5.55;1.50;;;;;;;1.81;68.29;97154.25;5090499;28;20123;-74
2021/12/01 01:35:55;;;;;;;4.50;1.23;;;;;;;1.78;68.37;97161.00;5090928;28;20692;-74
2021/12/01 01:38:20;;;;;;;4.18;1.20;;;;;;;1.78;68.16;97163.72;5090744;28;20520;-74
2021/12/01 01:40:46;;;;;;;5.50;1.20;;;;;;;1.80;68.78;97168.03;5072714;28;20024;-74
2021/12/01 01:43:12;;;;;;;5.10;1.23;;;;;;;1.79;69.36;97183.44;5090750;28;20430;-74
2021/12/01 01:45:38;;;;;;;6.20;1.20;;;;;;;1.80;69.60;97189.66;5090144;28;20533;-74
2021/12/01 01:48:09;;;;;;;3.55;1.15;;;;;;;1.79;68.43;97202.34;5072578;28;20598;-74
2021/12/01 01:50:38;;;;;;;4.82;1.20;;;;;;;1.75;68.83;97199.41;5090320;28;20479;-74
2021/12/01 01:53:08;;;;;;;4.75;1.08;;;;;;;1.76;69.32;97209.13;5090617;28;20027;-74
2021/12/01 01:55:40;;;;;;;5.03;1.98;;;;;;;1.76;69.37;97227.22;5071848;28;20381;-74
2021/12/01 01:58:05;;;;;;;6.18;1.70;;;;;;;1.74;69.73;97232.91;5089939;28;20028;-74
2021/12/01 02:00:34;;;;;;;3.58;1.17;;;;;;;1.73;70.38;97231.28;5090189;28;20020;-75
2021/12/01 02:03:00;;;;;;;4.15;1.00;;;;;;;1.75;70.36;97241.81;5090463;28;20040;-74
2021/12/01 02:05:26;;;;;;;2.58;1.27;;;;;;;1.74;70.09;97245.59;5088346;28;20073;-74
2021/12/01 02:07:53;;;;;;;3.17;0.88;;;;;;;1.73;70.21;97247.50;5086305;28;20107;-74
2021/12/01 02:10:18;;;;;;;2.33;0.80;;;;;;;1.73;70.92;97242.09;5089958;28;20020;-73
2021/12/01 02:12:44;;;;;;;5.10;1.27;;;;;;;1.71;70.26;97230.75;5089642;28;20077;-73
2021/12/01 02:15:10;;;;;;;2.60;1.00;;;;;;;1.70;70.28;97234.53;5089805;28;20024;-74
2021/12/01 02:17:36;;;;;;;3.33;1.00;;;;;;;1.68;70.81;97242.09;5090102;28;20492;-74
2021/12/01 02:20:10;;;;;;;5.88;1.67;;;;;;;1.68;71.18;97252.91;5089940;28;20019;-73
2021/12/01 02:22:36;;;;;;;3.20;1.00;;;;;;;1.67;71.26;97258.56;5089584;28;20067;-73
2021/12/01 02:25:01;;;;;;;3.72;1.75;;;;;;;1.68;70.26;97243.97;5089445;28;20059;-73
2021/12/01 02:27:27;;;;;;;2.88;0.90;;;;;;;1.62;71.04;97252.09;5089590;28;20024;-73
2021/12/01 02:29:52;;;;;;;2.33;0.90;;;;;;;1.61;71.12;97271.28;5089531;28;20103;-74
2021/12/01 02:32:18;;;;;;;5.30;1.58;;;;;;;1.61;71.85;97276.66;5089369;28;20040;-73
2021/12/01 02:34:44;;;;;;;4.25;1.75;;;;;;;1.55;71.13;97283.13;5071343;28;20084;-74
2021/12/01 02:37:10;;;;;;;3.55;1.30;;;;;;;1.51;71.45;97282.88;5089553;28;20069;-74
2021/12/01 02:39:36;;;;;;;2.72;1.50;;;;;;;1.45;71.49;97300.94;5071391;28;20484;-74
2021/12/01 02:42:07;;;;;;;5.97;1.90;;;;;;;1.42;71.85;97284.47;5089157;28;20035;-74
2021/12/01 02:44:35;;;;;;;4.47;1.60;;;;;;;1.41;72.39;97293.66;5089226;28;20395;-74
2021/12/01 02:47:01;;;;;;;4.47;1.80;;;;;;;1.40;72.99;97295.53;5089203;28;20032;-74
2021/12/01 02:49:28;;;;;;;6.35;2.40;;;;;;;1.37;73.07;97306.88;5071127;28;20031;-74
2021/12/01 02:51:56;;;;;;;3.25;2.17;;;;;;;1.34;72.81;97313.59;5089064;28;20024;-74
2021/12/01 02:54:23;;;;;;;4.13;2.50;;;;;;;1.31;73.37;97318.75;5089492;28;20066;-74
2021/12/01 02:56:50;;;;;;;3.75;2.30;;;;;;;1.28;73.79;97330.06;5089389;28;20529;-74
2021/12/01 02:59:16;;;;;;;6.85;3.40;;;;;;;1.26;73.69;97327.63;5089389;28;20107;-74
2021/12/01 03:01:43;;;;;;;4.03;2.30;;;;;;;1.25;73.39;97328.69;5089767;28;20020;-74
2021/12/01 03:04:09;;;;;;;9.68;3.42;;;;;;;1.26;73.51;97343.81;5089285;28;20020;-74
2021/12/01 03:06:36;;;;;;;8.88;4.15;;;;;;;1.25;73.56;97355.69;5089546;28;20024;-73
2021/12/01 03:09:04;;;;;;;6.65;3.03;;;;;;;1.26;73.70;97334.91;5083897;28;20029;-74
2021/12/01 03:11:29;;;;;;;6.70;3.22;;;;;;;1.27;74.50;97348.16;5088485;28;20095;-74
2021/12/01 03:13:55;;;;;;;8.38;4.60;;;;;;;1.26;73.74;97348.44;5088602;28;20448;-74
2021/12/01 03:16:21;;;;;;;9.65;4.10;;;;;;;1.28;74.30;97343.56;5089692;28;20032;-73
2021/12/01 03:18:47;;;;;;;7.68;3.85;;;;;;;1.29;74.78;97347.91;5088714;28;20141;-74
2021/12/01 03:21:13;;;;;;;10.68;4.95;;;;;;;1.30;74.49;97361.13;5089015;28;20024;-74
2021/12/01 03:23:39;;;;;;;6.30;3.05;;;;;;;1.30;74.46;97357.63;5088387;28;20569;-74
2021/12/01 03:26:04;;;;;;;7.40;3.28;;;;;;;1.29;73.81;97359.50;5088951;28;20529;-74
2021/12/01 03:28:30;;;;;;;7.43;3.20;;;;;;;1.29;74.26;97358.72;5088961;28;20023;-74
2021/12/01 03:30:56;;;;;;;8.07;3.25;;;;;;;1.27;74.33;97364.34;5089102;28;20032;-74
2021/12/01 03:33:22;;;;;;;9.27;3.70;;;;;;;1.29;74.26;97366.81;5088359;28;20252;-74
2021/12/01 03:35:50;;;;;;;5.32;2.35;;;;;;;1.30;74.67;97373.84;5070236;28;20381;-74
2021/12/01 03:38:18;;;;;;;10.45;4.68;;;;;;;1.29;74.79;97370.31;5088475;28;20051;-74
2021/12/01 03:40:43;;;;;;;5.35;2.10;;;;;;;1.28;74.86;97367.88;5089044;28;20035;-74
2021/12/01 03:43:09;;;;;;;7.47;2.28;;;;;;;1.28;74.46;97381.41;5088451;28;20023;-74
2021/12/01 03:45:35;;;;;;;9.02;2.70;;;;;;;1.30;74.95;97380.03;5070299;28;20078;-74
2021/12/01 03:48:00;;;;;;;4.88;1.73;;;;;;;1.32;75.02;97371.69;5070577;28;20357;-74
2021/12/01 03:50:26;;;;;;;7.00;1.70;;;;;;;1.34;74.41;97374.94;5088964;28;20043;-74
2021/12/01 03:52:52;;;;;;;4.88;1.52;;;;;;;1.32;75.16;97369.78;5088759;28;20032;-74
2021/12/01 03:55:17;;;;;;;3.88;1.20;;;;;;;1.33;74.72;97367.91;5088593;28;20028;-74
2021/12/01 03:57:44;;;;;;;3.90;1.10;;;;;;;1.34;74.69;97374.94;5070821;28;20410;-74
2021/12/01 04:00:12;;;;;;;4.20;1.30;;;;;;;1.30;74.27;97365.75;5091753;28;20484;-74
2021/12/01 04:02:38;;;;;;;3.25;1.33;;;;;;;1.26;74.63;97367.34;5092659;28;20031;-74
2021/12/01 04:05:04;;;;;;;2.35;1.58;;;;;;;1.22;74.68;97366.22;5074003;28;21127;-74
2021/12/01 04:07:30;;;;;;;2.97;1.50;;;;;;;1.15;74.28;97364.56;5092434;28;20035;-74
2021/12/01 04:09:56;;;;;;;4.60;1.33;;;;;;;1.09;74.92;97368.31;5092523;28;20098;-74
2021/12/01 04:12:21;;;;;;;8.05;2.25;;;;;;;1.07;74.81;97369.66;5092494;28;21341;-74
2021/12/01 04:14:47;;;;;;;13.48;4.00;;;;;;;1.02;75.00;97376.66;5073756;28;20034;-74
2021/12/01 04:17:12;;;;;;;9.52;4.93;;;;;;;1.03;75.03;97374.75;5092390;28;20115;-73
2021/12/01 04:19:38;;;;;;;21.65;8.65;;;;;;;1.04;75.12;97376.38;5092629;28;20047;-74
2021/12/01 04:22:03;;;;;;;3.60;1.70;;;;;;;1.04;75.05;97384.47;5092131;28;20032;-74
2021/12/01 04:24:29;;;;;;;6.82;2.00;;;;;;;1.04;74.77;97392.59;5091791;28;20656;-74
2021/12/01 04:26:56;;;;;;;3.53;1.55;;;;;;;1.06;74.72;97382.34;5092060;28;20089;-74
2021/12/01 04:29:21;;;;;;;3.42;1.40;;;;;;;1.11;75.17;97390.47;5073492;28;20028;-74
2021/12/01 04:31:48;;;;;;;3.60;1.20;;;;;;;1.13;74.66;97385.63;5073700;28;20046;-74
2021/12/01 04:34:14;;;;;;;3.42;1.30;;;;;;;1.16;75.41;97387.81;5091770;28;20361;-74
2021/12/01 04:36:42;;;;;;;4.30;1.88;;;;;;;1.17;74.37;97389.44;5092048;28;20039;-74
2021/12/01 04:39:11;;;;;;;9.13;2.38;;;;;;;1.22;75.20;97375.16;5092166;28;20142;-74
2021/12/01 04:41:38;;;;;;;13.45;3.20;;;;;;;1.23;74.64;97378.66;5091959;28;20487;-74
2021/12/01 04:44:11;;;;;;;7.03;2.38;;;;;;;1.22;74.57;97374.34;5091217;28;20031;-74
2021/12/01 04:46:43;;;;;;;7.60;2.33;;;;;;;1.23;74.29;97376.75;5091246;28;20020;-74
2021/12/01 04:49:10;;;;;;;23.00;5.10;;;;;;;1.22;75.21;97380.56;5091572;28;20038;-74
2021/12/01 04:51:36;;;;;;;10.40;3.35;;;;;;;1.22;75.03;97388.66;5091965;28;20023;-74
2021/12/01 04:54:03;;;;;;;8.27;3.60;;;;;;;1.24;74.82;97388.41;5091364;28;20028;-74
2021/12/01 04:56:29;;;;;;;5.40;2.25;;;;;;;1.24;74.94;97385.69;5090067;28;20024;-74
2021/12/01 04:58:55;;;;;;;6.28;2.25;;;;;;;1.25;74.30;97385.41;5091949;28;20028;-75
2021/12/01 05:01:20;;;;;;;5.28;2.03;;;;;;;1.24;74.67;97372.97;5073558;28;20024;-75
2021/12/01 05:03:46;;;;;;;4.45;2.38;;;;;;;1.26;75.01;97375.44;5073128;28;20059;-74
2021/12/01 05:06:13;;;;;;;5.00;2.10;;;;;;;1.27;74.50;97374.38;5091758;28;20472;-75
2021/12/01 05:08:39;;;;;;;6.05;2.30;;;;;;;1.30;74.69;97366.53;5091607;28;20066;-74
2021/12/01 05:11:05;;;;;;;5.03;2.38;;;;;;;1.33;74.85;97371.41;5072724;28;20081;-74
2021/12/01 05:13:30;;;;;;;4.53;1.55;;;;;;;1.35;74.97;97376.56;5091331;28;20028;-74
2021/12/01 05:15:56;;;;;;;4.78;1.70;;;;;;;1.34;74.39;97385.75;5072882;28;20020;-75
2021/12/01 05:18:21;;;;;;;4.78;1.95;;;;;;;1.33;74.46;97378.72;5091416;28;20038;-74
2021/12/01 05:20:47;;;;;;;17.17;6.68;;;;;;;1.30;75.13;97374.63;5073369;28;20028;-74
2021/12/01 05:23:15;;;;;;;17.30;6.80;;;;;;;1.32;74.70;97377.09;5091274;28;20035;-74
2021/12/01 05:25:41;;;;;;;9.02;3.15;;;;;;;1.34;75.07;97372.25;5090623;28;20027;-74
2021/12/01 05:28:07;;;;;;;7.25;3.50;;;;;;;1.35;74.99;97371.16;5088839;28;21860;-74
2021/12/01 05:30:32;;;;;;;6.85;2.47;;;;;;;1.37;74.54;97373.59;5091312;28;20116;-74
2021/12/01 05:33:04;;;;;;;11.43;7.13;;;;;;;1.36;74.95;97380.91;5091155;28;20050;-74
2021/12/01 05:35:30;;;;;;;17.48;12.23;;;;;;;1.36;75.06;97386.31;5072377;28;20062;-74
2021/12/01 05:37:57;;;;;;;11.52;7.53;;;;;;;1.37;75.06;97393.34;5091019;28;20103;-74
2021/12/01 05:40:22;;;;;;;6.85;4.70;;;;;;;1.40;74.83;97390.09;5072617;28;20024;-74
2021/12/01 05:42:48;;;;;;;7.55;4.15;;;;;;;1.45;74.95;97390.09;5090602;28;20067;-74
2021/12/01 05:45:13;;;;;;;10.00;5.90;;;;;;;1.53;74.99;97383.41;5090306;28;20361;-74
2021/12/01 05:47:39;;;;;;;7.35;3.45;;;;;;;1.58;75.11;97385.31;5090966;28;20035;-75
2021/12/01 05:50:04;;;;;;;10.07;6.35;;;;;;;1.58;74.74;97378.03;5091257;28;20020;-75
2021/12/01 05:52:30;;;;;;;12.95;8.00;;;;;;;1.61;74.68;97384.78;5090970;28;20032;-74
2021/12/01 05:54:55;;;;;;;10.15;7.72;;;;;;;1.60;75.08;97383.97;5071541;28;20020;-77
2021/12/01 05:57:21;;;;;;;9.25;4.32;;;;;;;1.60;75.17;97373.16;5090561;28;20103;-74
2021/12/01 05:59:46;;;;;;;7.13;3.78;;;;;;;1.60;74.85;97365.06;5090740;28;20099;-74
2021/12/01 06:02:11;;;;;;;7.90;3.67;;;;;;;1.63;75.33;97367.22;5091079;28;20038;-74
2021/12/01 06:04:37;;;;;;;7.72;4.15;;;;;;;1.64;74.54;97354.53;5091350;28;20028;-74
2021/12/01 06:07:02;;;;;;;11.30;6.38;;;;;;;1.64;74.75;97362.63;5091092;28;20028;-74
2021/12/01 06:09:28;;;;;;;9.23;4.88;;;;;;;1.60;74.69;97370.47;5091740;28;20059;-74
2021/12/01 06:11:53;;;;;;;14.40;4.60;;;;;;;1.60;75.10;97372.34;5091853;28;20110;-73
2021/12/01 06:14:19;;;;;;;17.73;9.55;;;;;;;1.59;74.79;97368.00;5091219;28;20028;-74
2021/12/01 06:16:46;;;;;;;17.27;11.43;;;;;;;1.58;74.74;97363.69;5091877;28;20070;-74
2021/12/01 06:19:11;;;;;;;21.63;10.43;;;;;;;1.56;74.70;97358.56;5091829;28;20024;-74
2021/12/01 06:21:37;;;;;;;18.95;10.23;;;;;;;1.55;74.52;97358.81;5090867;28;20030;-74
2021/12/01 06:24:02;;;;;;;24.63;12.15;;;;;;;1.55;75.43;97358.81;5071839;28;20194;-74
2021/12/01 06:26:28;;;;;;;20.98;9.88;;;;;;;1.55;75.20;97364.22;5091392;28;20024;-74
2021/12/01 06:28:53;;;;;;;25.08;10.38;;;;;;;1.53;74.40;97361.78;5091471;28;20059;-74
2021/12/01 06:31:19;;;;;;;23.58;11.38;;;;;;;1.55;74.92;97353.41;5091235;28;20032;-74
2021/12/01 06:33:44;;;;;;;20.35;9.90;;;;;;;1.56;74.68;97358.56;5091357;28;20059;-74
2021/12/01 06:36:10;;;;;;;22.20;10.35;;;;;;;1.53;74.47;97366.38;5091414;28;20031;-75
2021/12/01 06:38:38;;;;;;;16.45;6.00;;;;;;;1.48;74.83;97365.25;5091445;28;20176;-74
2021/12/01 06:41:03;;;;;;;21.02;6.72;;;;;;;1.44;74.97;97369.56;5091354;28;20108;-74
2021/12/01 06:43:29;;;;;;;21.42;8.30;;;;;;;1.42;75.12;97371.75;5091392;28;20154;-74
2021/12/01 06:45:54;;;;;;;38.22;16.42;;;;;;;1.38;74.93;97356.31;5090879;28;20028;-73
2021/12/01 06:48:20;;;;;;;51.50;20.67;;;;;;;1.40;74.84;97355.00;5091744;28;20032;-74
2021/12/01 06:50:45;;;;;;;19.20;9.25;;;;;;;1.45;74.85;97349.56;5091401;28;20024;-74
2021/12/01 06:53:11;;;;;;;24.70;14.63;;;;;;;1.48;75.44;97340.94;5090979;28;20031;-74
2021/12/01 06:55:36;;;;;;;30.67;16.17;;;;;;;1.47;74.89;97333.91;5090886;28;20103;-73
2021/12/01 06:58:02;;;;;;;25.60;14.05;;;;;;;1.50;75.48;97329.88;5073158;28;20554;-74
2021/12/01 07:00:28;;;;;;;39.20;18.63;;;;;;;1.52;75.70;97314.22;5091094;28;20035;-73
2021/12/01 07:02:53;;;;;;;38.38;17.05;;;;;;;1.58;75.73;97317.75;5091251;28;20020;-74
2021/12/01 07:05:19;;;;;;;39.25;17.85;;;;;;;1.63;75.16;97310.44;5090657;28;20028;-74
2021/12/01 07:07:44;;;;;;;39.83;19.52;;;;;;;1.66;75.02;97313.69;5091112;28;20028;-74
2021/12/01 07:10:12;;;;;;;50.75;22.25;;;;;;;1.66;75.22;97309.13;5091472;28;20103;-74
2021/12/01 07:12:38;;;;;;;55.80;26.70;;;;;;;1.67;75.09;97310.75;5091182;28;20024;-74
2021/12/01 07:15:05;;;;;;;61.00;29.42;;;;;;;1.66;75.35;97311.81;5090743;28;20028;-74
2021/12/01 07:17:31;;;;;;;74.38;37.45;;;;;;;1.61;75.07;97298.28;5090800;28;20035;-74
2021/12/01 07:19:56;;;;;;;69.57;36.08;;;;;;;1.59;75.37;97287.75;5091215;28;20016;-74
2021/12/01 07:22:22;;;;;;;52.95;28.98;;;;;;;1.59;75.09;97284.22;5091019;28;20028;-74
2021/12/01 07:24:47;;;;;;;46.22;21.35;;;;;;;1.54;74.50;97286.91;5072913;28;20032;-74
2021/12/01 07:27:14;;;;;;;39.03;19.58;;;;;;;1.53;74.65;97291.53;5090748;28;20034;-74
2021/12/01 07:29:42;;;;;;;35.10;15.80;;;;;;;1.56;75.32;97288.28;5090956;28;20111;-74
2021/12/01 07:32:08;;;;;;;30.90;14.00;;;;;;;1.58;74.78;97286.13;5090725;28;20082;-74
2021/12/01 07:34:41;;;;;;;32.47;15.40;;;;;;;1.60;75.45;97283.16;5074546;28;20071;-73
2021/12/01 07:37:11;;;;;;;44.45;18.30;;;;;;;1.60;75.57;97283.97;5094572;28;20035;-74
2021/12/01 07:39:36;;;;;;;50.78;20.27;;;;;;;1.66;74.94;97273.16;5094992;28;20108;-74
2021/12/01 07:42:03;;;;;;;56.67;21.98;;;;;;;1.71;74.97;97265.06;5092569;28;21379;-73
2021/12/01 07:44:28;;;;;;;49.90;19.02;;;;;;;1.75;75.13;97264.28;5092984;28;20380;-74
2021/12/01 07:46:54;;;;;;;46.50;17.30;;;;;;;1.80;74.62;97263.47;5094471;28;20024;-74
2021/12/01 07:49:19;;;;;;;69.50;24.63;;;;;;;1.84;75.19;97269.97;5093261;28;20032;-73
2021/12/01 07:51:45;;;;;;;45.53;17.27;;;;;;;1.87;74.61;97269.41;5093848;28;20441;-74
2021/12/01 07:54:11;;;;;;;39.70;15.55;;;;;;;1.88;74.74;97262.09;5093077;28;20056;-74
2021/12/01 07:56:36;;;;;;;38.25;15.30;;;;;;;1.92;74.89;97257.78;5092954;28;20502;-73
2021/12/01 07:59:02;;;;;;;48.67;18.83;;;;;;;1.95;74.54;97264.56;5092506;28;20071;-73
2021/12/01 08:01:27;;;;;;;46.00;19.70;;;;;;;2.01;74.96;97260.78;5075967;28;20077;-74
2021/12/01 08:03:53;;;;;;;49.08;18.70;;;;;;;2.00;74.10;97251.06;5093709;28;20063;-73
2021/12/01 08:06:18;;;;;;;38.03;15.18;;;;;;;1.98;74.69;97248.59;5093537;28;20043;-73
2021/12/01 08:08:44;;;;;;;39.38;17.90;;;;;;;1.94;73.90;97252.91;5093070;28;20028;-74
2021/12/01 08:11:09;;;;;;;43.22;16.33;;;;;;;1.89;74.44;97250.22;5093801;28;20024;-73
2021/12/01 08:13:35;;;;;;;45.45;19.30;;;;;;;1.86;74.14;97245.34;5094113;28;20028;-74
2021/12/01 08:16:00;;;;;;;43.35;19.10;;;;;;;1.78;74.25;97250.22;5094224;28;20130;-74
2021/12/01 08:18:26;;;;;;;29.20;14.30;;;;;;;1.76;74.62;97246.16;5093830;28;20015;-73
2021/12/01 08:20:51;;;;;;;30.75;14.30;;;;;;;1.76;74.08;97236.16;5093265;28;20081;-75
2021/12/01 08:23:17;;;;;;;32.45;15.65;;;;;;;1.75;74.43;97233.72;5092757;28;20028;-72
2021/12/01 08:25:42;;;;;;;29.30;13.18;;;;;;;1.74;74.56;97222.09;5074306;28;20052;-73
2021/12/01 08:28:08;;;;;;;25.10;11.40;;;;;;;1.78;73.98;97227.78;5090616;28;20028;-72
2021/12/01 08:30:33;;;;;;;22.50;11.15;;;;;;;1.82;74.54;97217.25;5094459;28;20024;-72
2021/12/01 08:33:00;;;;;;;29.48;16.67;;;;;;;1.87;74.60;97211.81;5091332;28;20584;-73
2021/12/01 08:35:26;;;;;;;30.88;15.40;;;;;;;1.93;74.06;97208.03;5091000;28;20020;-73
2021/12/01 08:37:52;;;;;;;32.88;15.18;;;;;;;2.01;73.88;97204.78;5091938;28;20056;-77
2021/12/01 08:40:18;;;;;;;24.17;10.48;;;;;;;2.14;74.63;97203.44;5091965;28;20086;-78
2021/12/01 08:42:46;;;;;;;26.88;12.77;;;;;;;2.23;74.55;97195.59;5091584;28;20499;-78
2021/12/01 08:45:12;;;;;;;20.13;11.82;;;;;;;2.29;74.09;97190.97;5090001;28;20104;-73
2021/12/01 08:47:37;;;;;;;24.75;13.20;;;;;;;2.36;74.46;97199.63;5096052;28;20019;-72
2021/12/01 08:50:07;;;;;;;22.60;12.77;;;;;;;2.47;73.89;97187.66;5076086;28;20020;-74
2021/12/01 08:52:32;;;;;;;24.80;10.90;;;;;;;2.58;73.91;97179.53;5094880;28;20436;-73
2021/12/01 08:54:58;;;;;;;27.00;12.55;;;;;;;2.65;74.36;97175.44;5091192;28;20097;-72
2021/12/01 08:57:23;;;;;;;26.98;13.05;;;;;;;2.75;74.69;97174.59;5089600;28;20036;-74
2021/12/01 08:59:50;;;;;;;49.25;19.60;;;;;;;2.84;74.48;97161.28;5091335;28;20020;-74
2021/12/01 09:02:16;;;;;;;55.45;18.95;;;;;;;2.91;73.93;97161.81;5092568;28;20115;-73
2021/12/01 09:04:42;;;;;;;59.38;18.40;;;;;;;3.01;74.04;97154.72;5091214;28;20017;-72
2021/12/01 09:07:08;;;;;;;52.92;17.13;;;;;;;3.08;74.49;97160.63;5073416;28;20574;-73
2021/12/01 09:09:34;;;;;;;43.70;15.77;;;;;;;3.11;73.65;97154.63;5093084;28;20032;-73
2021/12/01 09:11:59;;;;;;;25.65;10.63;;;;;;;3.10;73.93;97155.72;5091292;28;20476;-74
2021/12/01 09:14:26;;;;;;;23.23;9.98;;;;;;;3.11;74.13;97162.78;5072859;28;20012;-73
2021/12/01 09:16:55;;;;;;;20.70;9.57;;;;;;;3.09;74.39;97160.34;5091521;28;20016;-76
2021/12/01 09:19:21;;;;;;;33.30;11.82;;;;;;;3.10;73.46;97153.03;5074561;28;20035;-75
2021/12/01 09:21:47;;;;;;;19.65;8.80;;;;;;;3.11;74.08;97157.34;5091927;28;20028;-74
2021/12/01 09:24:14;;;;;;;18.42;9.13;;;;;;;3.15;73.64;97146.78;5091449;28;20024;-76
2021/12/01 09:26:41;;;;;;;24.80;12.35;;;;;;;3.17;74.83;97139.97;5091069;28;20113;-75
2021/12/01 09:29:06;;;;;;;20.95;9.32;;;;;;;3.26;74.35;97138.31;5089661;28;20380;-75
2021/12/01 09:31:32;;;;;;;25.23;11.05;;;;;;;3.32;74.23;97140.97;5072391;28;20123;-73
2021/12/01 09:33:58;;;;;;;28.08;11.07;;;;;;;3.37;74.42;97132.81;5087930;28;20094;-73
2021/12/01 09:36:23;;;;;;;17.77;9.02;;;;;;;3.40;74.50;97126.84;5090766;28;20094;-73
2021/12/01 09:38:49;;;;;;;22.35;9.43;;;;;;;3.42;74.39;97130.88;5072697;28;20085;-72
2021/12/01 09:41:15;;;;;;;16.95;8.85;;;;;;;3.44;74.14;97130.59;5089116;28;20560;-73
2021/12/01 09:43:40;;;;;;;21.92;10.30;;;;;;;3.46;74.27;97124.88;5090957;28;20084;-72
2021/12/01 09:46:09;;;;;;;19.65;9.35;;;;;;;3.42;73.39;97128.16;5086671;28;20032;-72
2021/12/01 09:48:36;;;;;;;15.52;6.97;;;;;;;3.36;73.92;97129.28;5090541;28;20027;-69
2021/12/01 09:51:02;;;;;;;13.85;7.40;;;;;;;3.34;73.90;97115.22;5090467;28;20038;-71
2021/12/01 09:53:27;;;;;;;12.20;6.13;;;;;;;3.30;73.72;97130.41;5090403;28;20028;-73
2021/12/01 09:55:53;;;;;;;11.85;6.47;;;;;;;3.28;74.07;97114.44;5089956;28;20561;-70
2021/12/01 09:58:24;;;;;;;14.70;7.00;;;;;;;3.27;73.48;97112.00;5090328;28;20024;-72
2021/12/01 10:00:54;;;;;;;13.27;6.65;;;;;;;3.30;73.52;97114.16;5088379;28;20020;-73
2021/12/01 10:03:21;;;;;;;14.75;5.97;;;;;;;3.30;74.04;97114.16;5071423;28;20024;-74
2021/12/01 10:05:49;;;;;;;11.75;6.28;;;;;;;3.30;73.19;97108.72;5089407;28;20480;-72
2021/12/01 10:08:49;;;;;;;13.07;6.82;;;;;;;3.28;73.71;97103.59;5090328;28;20047;-72
2021/12/01 10:11:16;;;;;;;10.57;5.93;;;;;;;3.33;74.43;97091.91;5090179;28;20535;-70
2021/12/01 10:14:04;;;;;;;11.90;6.80;;;;;;;3.36;74.40;97090.56;5071876;28;20024;-74
2021/12/01 10:16:33;;;;;;;12.98;6.32;;;;;;;3.37;74.51;97081.34;5089489;28;20032;-73
2021/12/01 10:19:02;;;;;;;11.77;6.20;;;;;;;3.36;74.02;97071.59;5089717;28;20032;-73
2021/12/01 10:21:34;;;;;;;11.43;7.00;;;;;;;3.36;74.86;97061.53;5089895;28;20024;-73
2021/12/01 10:24:05;;;;;;;13.27;7.65;;;;;;;3.39;74.87;97058.25;5089415;28;20040;-74
2021/12/01 10:26:42;;;;;;;10.63;6.15;;;;;;;3.40;75.41;97050.94;5089763;28;20024;-74
2021/12/01 10:29:10;;;;;;;14.05;6.35;;;;;;;3.43;75.81;97047.69;5091749;28;20065;-74
2021/12/01 10:31:43;;;;;;;12.73;5.95;;;;;;;3.45;75.36;97044.66;5091745;28;20109;-76
2021/12/01 10:34:17;;;;;;;24.40;12.43;;;;;;;3.46;76.01;97044.41;5090227;28;21006;-74
2021/12/01 10:36:44;;;;;;;41.20;16.77;;;;;;;3.50;75.59;97050.03;5070635;28;20490;-75
2021/12/01 10:39:10;;;;;;;34.13;10.48;;;;;;;3.50;75.95;97045.41;5088589;28;20119;-74
2021/12/01 10:41:37;;;;;;;27.30;9.25;;;;;;;3.51;75.99;97035.41;5088694;28;20139;-74
2021/12/01 10:44:17;;;;;;;21.00;7.00;;;;;;;3.51;75.40;97027.28;5081512;28;20043;-74
2021/12/01 10:46:47;;;;;;;28.60;9.38;;;;;;;3.46;75.56;97013.75;5089418;28;20695;-74
2021/12/01 10:49:14;;;;;;;23.23;8.95;;;;;;;3.45;75.71;97009.44;5089449;28;20585;-73
2021/12/01 10:51:42;;;;;;;28.55;10.25;;;;;;;3.41;76.01;97009.19;5089984;28;20024;-76
2021/12/01 10:54:18;;;;;;;24.90;8.18;;;;;;;3.38;76.26;97009.78;5091938;28;20028;-72
2021/12/01 10:56:45;;;;;;;17.98;7.60;;;;;;;3.34;76.29;97006.00;5071278;28;20024;-73
2021/12/01 10:59:15;;;;;;;15.43;7.00;;;;;;;3.32;76.33;97011.69;5089582;28;20059;-76
2021/12/01 11:01:41;;;;;;;13.70;6.75;;;;;;;3.28;76.66;97000.63;5087964;28;20029;-77
2021/12/01 11:04:07;;;;;;;14.85;6.30;;;;;;;3.24;77.16;96999.59;5088794;28;20110;-73
2021/12/01 11:06:39;;;;;;;22.33;9.65;;;;;;;3.20;76.80;96995.81;5087918;28;20020;-73
2021/12/01 11:09:04;;;;;;;15.95;6.82;;;;;;;3.21;77.31;96986.59;5090303;28;20039;-72
2021/12/01 11:11:45;;;;;;;21.10;8.50;;;;;;;3.19;77.38;96986.06;5092795;28;20403;-72
2021/12/01 11:14:16;;;;;;;21.80;8.50;;;;;;;3.18;77.38;96973.63;5094004;28;20043;-77
2021/12/01 11:16:42;;;;;;;17.65;7.82;;;;;;;3.18;78.23;96962.78;5093472;28;20032;-72
2021/12/01 11:19:09;;;;;;;15.20;6.93;;;;;;;3.18;78.28;96962.78;5091133;28;20039;-76
2021/12/01 11:21:35;;;;;;;20.00;9.23;;;;;;;3.23;78.66;96961.94;5074691;28;20050;-75
2021/12/01 11:24:06;;;;;;;14.07;6.88;;;;;;;3.26;78.99;96947.84;5091165;28;20028;-74
2021/12/01 11:26:33;;;;;;;15.40;6.78;;;;;;;3.25;78.76;96948.94;5093838;28;20028;-73
2021/12/01 11:29:02;;;;;;;11.60;6.15;;;;;;;3.26;78.76;96954.03;5072204;28;20499;-75
2021/12/01 11:31:29;;;;;;;10.70;6.15;;;;;;;3.25;79.16;96954.34;5091854;28;20067;-74
2021/12/01 11:33:57;;;;;;;10.48;5.57;;;;;;;3.23;79.72;96940.28;5092316;28;20024;-74
2021/12/01 11:36:26;;;;;;;7.88;4.18;;;;;;;3.23;79.22;96946.50;5093211;28;20028;-74